createdAt,value
2023-04-12T00:00:04.197Z,98094.28
2023-04-12T00:01:06.695Z,98089.19
2023-04-12T00:02:08.853Z,98087.00
2023-04-12T00:03:10.947Z,98085.09
2023-04-12T00:04:14.814Z,98092.38
2023-04-12T00:05:16.798Z,98091.28
2023-04-12T00:06:19.055Z,98098.28
2023-04-12T00:07:24.931Z,98086.69
2023-04-12T00:08:33.064Z,98091.28
2023-04-12T00:09:36.456Z,98094.47
2023-04-12T00:10:38.481Z,98087.78
2023-04-12T00:11:40.379Z,98084.81
2023-04-12T00:12:42.331Z,98083.19
2023-04-12T00:13:44.198Z,98080.22
2023-04-12T00:14:47.159Z,98082.91
2023-04-12T00:15:49.559Z,98078.59
2023-04-12T00:16:51.684Z,98073.22
2023-04-12T00:17:53.787Z,98076.72
2023-04-12T00:18:55.716Z,98076.72
2023-04-12T00:19:57.597Z,98082.91
2023-04-12T00:20:59.460Z,98077.00
2023-04-12T00:22:01.434Z,98077.00
2023-04-12T00:23:03.578Z,98078.59
2023-04-12T00:24:05.733Z,98069.44
2023-04-12T00:25:08.689Z,98073.22
2023-04-12T00:26:10.625Z,98078.59
2023-04-12T00:27:12.513Z,98071.13
2023-04-12T00:28:16.141Z,98072.94
2023-04-12T00:29:18.213Z,98065.44
2023-04-12T00:30:21.029Z,98071.63
2023-04-12T00:31:23.068Z,98073.53
2023-04-12T00:32:24.997Z,98071.63
2023-04-12T00:33:26.863Z,98074.63
2023-04-12T00:34:28.955Z,98072.72
2023-04-12T00:35:31.132Z,98065.25
2023-04-12T00:36:33.156Z,98068.44
2023-04-12T00:37:36.653Z,98059.56
2023-04-12T00:38:38.461Z,98065.75
2023-04-12T00:39:40.356Z,98063.63
2023-04-12T00:40:43.745Z,98059.84
2023-04-12T00:41:45.579Z,98060.66
2023-04-12T00:42:47.485Z,98058.25
2023-04-12T00:43:49.830Z,98063.63
2023-04-12T00:44:51.877Z,98053.97
2023-04-12T00:45:58.046Z,98059.84
2023-04-12T00:47:00.829Z,98057.44
2023-04-12T00:48:03.787Z,98060.16
2023-04-12T00:49:06.573Z,98058.53
2023-04-12T00:50:09.789Z,98058.81
2023-04-12T00:51:11.703Z,98053.13
2023-04-12T00:52:15.628Z,98058.25
2023-04-12T00:53:18.825Z,98053.44
2023-04-12T00:54:22.435Z,98055.03
2023-04-12T00:55:24.544Z,98054.22
2023-04-12T00:56:28.456Z,98052.13
2023-04-12T00:57:39.895Z,98053.66
2023-04-12T00:58:41.884Z,98045.66
2023-04-12T00:59:43.674Z,98049.44
2023-04-12T01:00:50.512Z,98046.44
2023-04-12T01:01:54.139Z,98052.13
2023-04-12T01:02:57.043Z,98046.44
2023-04-12T01:04:04.728Z,98049.75
2023-04-12T01:05:08.872Z,98041.06
2023-04-12T01:06:29.912Z,98043.19
2023-04-12T01:08:00.819Z,98043.69
2023-04-12T01:09:20.551Z,98037.25
2023-04-12T01:10:35.634Z,98039.97
2023-04-12T01:12:06.611Z,98045.88
2023-04-12T01:13:33.158Z,98037.25
2023-04-12T01:15:07.386Z,98042.88
2023-04-12T01:16:26.417Z,98034.88
2023-04-12T01:17:37.950Z,98039.56
2023-04-12T01:18:50.696Z,98039.25
2023-04-12T01:20:17.243Z,98033.88
2023-04-12T01:21:52.897Z,98028.19
2023-04-12T01:23:34.935Z,98019.50
2023-04-12T01:24:59.489Z,98029.28
2023-04-12T01:26:34.725Z,98026.09
2023-04-12T01:28:01.256Z,98031.25
2023-04-12T01:29:10.266Z,98019.94
2023-04-12T01:30:17.023Z,98029.41
2023-04-12T01:31:21.641Z,98019.75
2023-04-12T01:32:24.182Z,98015.75
2023-04-12T01:33:31.669Z,98022.22
2023-04-12T01:34:36.477Z,98018.16
2023-04-12T01:35:39.880Z,98015.22
2023-04-12T01:36:46.392Z,98019.75
2023-04-12T01:37:48.863Z,98016.00
2023-04-12T01:38:52.018Z,98007.94
2023-04-12T01:39:54.482Z,98013.63
2023-04-12T01:40:56.428Z,98017.66
2023-04-12T01:41:58.269Z,98003.66
2023-04-12T01:43:14.050Z,98005.47
2023-04-12T01:44:17.463Z,97998.78
2023-04-12T01:45:19.706Z,98006.06
2023-04-12T01:46:23.929Z,97999.06
2023-04-12T01:47:27.194Z,98002.28
2023-04-12T01:48:29.203Z,98004.19
2023-04-12T01:49:47.816Z,97996.59
2023-04-12T01:51:06.352Z,98002.47
2023-04-12T01:52:23.424Z,97998.69
2023-04-12T01:53:28.035Z,98002.78
2023-04-12T01:54:37.040Z,97993.91
2023-04-12T01:55:46.176Z,97990.72
2023-04-12T01:56:58.095Z,97999.78
2023-04-12T01:58:03.495Z,97993.09
2023-04-12T01:59:07.343Z,97991.78
2023-04-12T02:00:11.836Z,97983.44
2023-04-12T02:01:16.269Z,97979.41
2023-04-12T02:02:19.446Z,97978.31
2023-04-12T02:03:24.384Z,97976.44
2023-04-12T02:04:28.248Z,97964.84
2023-04-12T02:05:31.282Z,97968.94
2023-04-12T02:06:34.572Z,97956.28
2023-04-12T02:07:37.582Z,97963.25
2023-04-12T02:08:40.020Z,97949.78
2023-04-12T02:09:41.840Z,97947.09
2023-04-12T02:10:43.624Z,97949.00
2023-04-12T02:11:49.871Z,97934.44
2023-04-12T02:12:51.735Z,97931.22
2023-04-12T02:13:53.674Z,97927.75
2023-04-12T02:14:57.125Z,97933.94
2023-04-12T02:15:59.148Z,97931.22
2023-04-12T02:17:02.539Z,97932.81
2023-04-12T02:18:04.671Z,97937.41
2023-04-12T02:19:08.336Z,97930.44
2023-04-12T02:20:12.030Z,97925.06
2023-04-12T02:21:14.130Z,97926.66
2023-04-12T02:22:16.960Z,97923.44
2023-04-12T02:23:18.807Z,97911.88
2023-04-12T02:24:21.392Z,97919.16
2023-04-12T02:25:23.352Z,97907.59
2023-04-12T02:26:25.736Z,97912.97
2023-04-12T02:27:27.557Z,97908.69
2023-04-12T02:28:29.540Z,97907.59
2023-04-12T02:29:31.838Z,97909.50
2023-04-12T02:30:33.935Z,97910.59
2023-04-12T02:31:38.955Z,97904.09
2023-04-12T02:32:46.885Z,97903.31
2023-04-12T02:33:49.058Z,97901.72
2023-04-12T02:34:53.675Z,97901.41
2023-04-12T02:35:57.151Z,97900.91
2023-04-12T02:36:59.156Z,97902.03
2023-04-12T02:38:01.010Z,97896.31
2023-04-12T02:39:02.966Z,97900.13
2023-04-12T02:40:06.883Z,97891.25
2023-04-12T02:41:08.747Z,97893.94
2023-04-12T02:42:10.760Z,97892.84
2023-04-12T02:43:12.675Z,97886.44
2023-04-12T02:44:14.590Z,97891.25
2023-04-12T02:45:16.465Z,97890.44
2023-04-12T02:46:24.476Z,97889.34
2023-04-12T02:47:29.124Z,97884.25
2023-04-12T02:48:31.002Z,97886.97
2023-04-12T02:49:33.026Z,97883.97
2023-04-12T02:50:38.175Z,97881.56
2023-04-12T02:51:40.076Z,97877.78
2023-04-12T02:52:41.934Z,97874.56
2023-04-12T02:53:43.860Z,97876.19
2023-04-12T02:54:46.174Z,97872.97
2023-04-12T02:55:48.181Z,97872.16
2023-04-12T02:56:49.970Z,97874.38
2023-04-12T02:57:51.779Z,97867.09
2023-04-12T02:58:53.719Z,97874.06
2023-04-12T02:59:55.657Z,97864.09
2023-04-12T03:01:00.482Z,97859.81
2023-04-12T03:02:02.471Z,97866.00
2023-04-12T03:03:05.005Z,97857.41
2023-04-12T03:04:07.801Z,97860.59
2023-04-12T03:05:10.963Z,97861.22
2023-04-12T03:06:13.629Z,97852.03
2023-04-12T03:07:17.267Z,97857.41
2023-04-12T03:08:19.723Z,97851.53
2023-04-12T03:09:21.625Z,97857.72
2023-04-12T03:10:23.868Z,97849.94
2023-04-12T03:11:25.899Z,97851.22
2023-04-12T03:12:28.810Z,97840.28
2023-04-12T03:13:31.268Z,97849.63
2023-04-12T03:14:33.165Z,97853.94
2023-04-12T03:15:35.432Z,97840.75
2023-04-12T03:16:37.653Z,97844.84
2023-04-12T03:17:39.536Z,97834.88
2023-04-12T03:18:41.400Z,97839.78
2023-04-12T03:19:43.448Z,97839.47
2023-04-12T03:20:47.634Z,97838.38
2023-04-12T03:21:49.941Z,97833.00
2023-04-12T03:22:51.816Z,97829.50
2023-04-12T03:23:53.817Z,97836.47
2023-04-12T03:24:55.703Z,97815.81
2023-04-12T03:25:58.175Z,97817.94
2023-04-12T03:27:02.241Z,97814.44
2023-04-12T03:28:04.369Z,97810.97
2023-04-12T03:29:09.566Z,97810.16
2023-04-12T03:30:13.824Z,97811.75
2023-04-12T03:31:20.609Z,97811.75
2023-04-12T03:32:24.281Z,97805.84
2023-04-12T03:33:27.346Z,97798.88
2023-04-12T03:34:32.466Z,97808.53
2023-04-12T03:35:34.448Z,97796.19
2023-04-12T03:36:36.332Z,97793.19
2023-04-12T03:37:43.180Z,97785.09
2023-04-12T03:38:45.332Z,97788.09
2023-04-12T03:39:48.407Z,97789.19
2023-04-12T03:40:50.972Z,97783.50
2023-04-12T03:41:53.672Z,97786.50
2023-04-12T03:42:55.629Z,97780.31
2023-04-12T03:43:57.765Z,97778.44
2023-04-12T03:44:59.817Z,97775.25
2023-04-12T03:46:06.630Z,97776.84
2023-04-12T03:47:08.897Z,97779.53
2023-04-12T03:48:12.317Z,97776.03
2023-04-12T03:49:14.469Z,97775.53
2023-04-12T03:50:16.413Z,97772.84
2023-04-12T03:51:18.527Z,97773.66
2023-04-12T03:52:20.713Z,97768.25
2023-04-12T03:53:22.842Z,97766.66
2023-04-12T03:54:25.130Z,97772.06
2023-04-12T03:55:27.102Z,97765.56
2023-04-12T03:56:28.932Z,97769.84
2023-04-12T03:57:30.920Z,97778.22
2023-04-12T03:58:34.000Z,97766.66
2023-04-12T03:59:36.052Z,97763.69
2023-04-12T04:00:37.911Z,97762.88
2023-04-12T04:01:39.971Z,97759.41
2023-04-12T04:02:42.073Z,97755.09
2023-04-12T04:03:46.587Z,97755.91
2023-04-12T04:04:48.961Z,97751.31
2023-04-12T04:05:50.915Z,97744.66
2023-04-12T04:06:53.073Z,97745.75
2023-04-12T04:07:54.933Z,97744.66
2023-04-12T04:09:00.829Z,97739.75
2023-04-12T04:10:03.303Z,97746.25
2023-04-12T04:12:09.312Z,97748.44
2023-04-12T04:13:11.163Z,97741.94
2023-04-12T04:14:13.512Z,97739.56
2023-04-12T04:15:15.906Z,97737.94
2023-04-12T04:16:18.211Z,97731.50
2023-04-12T04:17:20.269Z,97733.88
2023-04-12T04:18:22.531Z,97729.59
2023-04-12T04:19:24.485Z,97729.59
2023-04-12T04:20:27.850Z,97733.66
2023-04-12T04:21:32.979Z,97727.97
2023-04-12T04:22:34.858Z,97719.63
2023-04-12T04:23:39.980Z,97722.09
2023-04-12T04:24:42.930Z,97716.72
2023-04-12T04:25:45.645Z,97716.41
2023-04-12T04:26:47.572Z,97716.41
2023-04-12T04:27:49.618Z,97708.63
2023-04-12T04:28:51.906Z,97710.53
2023-04-12T04:29:53.715Z,97707.03
2023-04-12T04:30:56.894Z,97702.47
2023-04-12T04:31:59.539Z,97703.56
2023-04-12T04:33:01.824Z,97697.88
2023-04-12T04:34:05.520Z,97699.78
2023-04-12T04:35:08.291Z,97697.88
2023-04-12T04:36:11.116Z,97694.69
2023-04-12T04:37:13.337Z,97691.69
2023-04-12T04:38:16.022Z,97694.69
2023-04-12T04:39:17.872Z,97694.69
2023-04-12T04:40:21.612Z,97696.28
2023-04-12T04:41:24.275Z,97690.91
2023-04-12T04:42:26.493Z,97692.78
2023-04-12T04:43:30.388Z,97691.69
2023-04-12T04:44:36.105Z,97692.00
2023-04-12T04:45:39.075Z,97689.31
2023-04-12T04:46:41.209Z,97686.13
2023-04-12T04:47:43.466Z,97685.31
2023-04-12T04:48:45.659Z,97686.13
2023-04-12T04:49:48.060Z,97688.81
2023-04-12T04:50:51.807Z,97680.75
2023-04-12T04:51:54.319Z,97678.84
2023-04-12T04:52:56.161Z,97674.25
2023-04-12T04:53:59.298Z,97673.16
2023-04-12T04:55:02.443Z,97676.94
2023-04-12T04:56:06.036Z,97669.97
2023-04-12T04:57:11.915Z,97679.94
2023-04-12T04:58:15.272Z,97669.19
2023-04-12T04:59:18.445Z,97675.34
2023-04-12T05:00:21.759Z,97673.75
2023-04-12T05:01:28.838Z,97669.97
2023-04-12T05:02:31.750Z,97674.25
2023-04-12T05:03:42.776Z,97670.78
2023-04-12T05:04:44.812Z,97669.97
2023-04-12T05:05:52.103Z,97673.16
2023-04-12T05:06:53.884Z,97666.78
2023-04-12T05:07:56.625Z,97671.06
2023-04-12T05:08:58.879Z,97666.28
2023-04-12T05:10:01.175Z,97669.47
2023-04-12T05:11:03.563Z,97668.69
2023-04-12T05:12:06.283Z,97672.47
2023-04-12T05:13:10.138Z,97670.06
2023-04-12T05:14:12.704Z,97662.50
2023-04-12T05:15:15.321Z,97654.44
2023-04-12T05:16:17.193Z,97663.59
2023-04-12T05:17:19.091Z,97656.34
2023-04-12T05:18:21.540Z,97659.03
2023-04-12T05:19:23.711Z,97656.34
2023-04-12T05:20:25.808Z,97651.75
2023-04-12T05:21:29.000Z,97657.91
2023-04-12T05:22:31.141Z,97659.28
2023-04-12T05:23:42.006Z,97647.94
2023-04-12T05:24:43.843Z,97654.44
2023-04-12T05:25:48.330Z,97655.81
2023-04-12T05:26:52.108Z,97652.00
2023-04-12T05:27:53.980Z,97654.72
2023-04-12T05:28:56.045Z,97648.53
2023-04-12T05:29:58.614Z,97655.00
2023-04-12T05:31:00.681Z,97656.34
2023-04-12T05:32:02.813Z,97645.34
2023-04-12T05:33:04.776Z,97645.03
2023-04-12T05:34:06.642Z,97656.13
2023-04-12T05:35:08.986Z,97641.56
2023-04-12T05:36:12.184Z,97639.66
2023-04-12T05:37:14.061Z,97639.66
2023-04-12T05:38:16.021Z,97638.88
2023-04-12T05:39:20.518Z,97641.88
2023-04-12T05:40:22.652Z,97635.38
2023-04-12T05:41:24.571Z,97629.19
2023-04-12T05:42:27.127Z,97630.00
2023-04-12T05:43:29.194Z,97628.41
2023-04-12T05:44:31.498Z,97629.50
2023-04-12T05:45:33.381Z,97619.84
2023-04-12T05:46:36.243Z,97631.09
2023-04-12T05:47:38.239Z,97616.84
2023-04-12T05:48:40.343Z,97618.44
2023-04-12T05:49:42.201Z,97623.50
2023-04-12T05:50:52.717Z,97610.84
2023-04-12T05:51:54.844Z,97607.66
2023-04-12T05:52:57.017Z,97605.28
2023-04-12T05:53:58.872Z,97606.69
2023-04-12T05:55:00.730Z,97602.59
2023-04-12T05:56:02.843Z,97604.00
2023-04-12T05:57:04.743Z,97601.00
2023-04-12T05:58:06.931Z,97600.22
2023-04-12T05:59:10.955Z,97601.00
2023-04-12T06:00:16.941Z,97593.72
2023-04-12T06:01:19.862Z,97584.06
2023-04-12T06:02:22.803Z,97587.84
2023-04-12T06:03:25.732Z,97587.25
2023-04-12T06:04:41.973Z,97582.16
2023-04-12T06:05:48.649Z,97579.19
2023-04-12T06:06:50.631Z,97574.41
2023-04-12T06:07:52.526Z,97574.41
2023-04-12T06:08:54.335Z,97569.31
2023-04-12T06:09:56.453Z,97569.31
2023-04-12T06:10:58.273Z,97562.34
2023-04-12T06:12:00.223Z,97568.53
2023-04-12T06:13:02.261Z,97550.50
2023-04-12T06:14:04.272Z,97564.53
2023-04-12T06:15:07.370Z,97556.66
2023-04-12T06:16:09.528Z,97556.66
2023-04-12T06:17:11.352Z,97559.66
2023-04-12T06:18:13.675Z,97562.06
2023-04-12T06:19:15.526Z,97551.91
2023-04-12T06:20:17.825Z,97550.28
2023-04-12T06:21:20.452Z,97543.81
2023-04-12T06:22:22.306Z,97549.69
2023-04-12T06:23:24.192Z,97548.38
2023-04-12T06:24:26.081Z,97547.59
2023-04-12T06:25:27.977Z,97532.50
2023-04-12T06:26:38.999Z,97529.03
2023-04-12T06:27:42.231Z,97535.75
2023-04-12T06:28:44.290Z,97531.72
2023-04-12T06:29:46.205Z,97541.69
2023-04-12T06:30:48.131Z,97532.50
2023-04-12T06:31:50.219Z,97531.72
2023-04-12T06:32:52.259Z,97529.81
2023-04-12T06:33:54.212Z,97519.84
2023-04-12T06:34:56.543Z,97517.47
2023-04-12T06:35:58.727Z,97509.41
2023-04-12T06:37:00.688Z,97514.47
2023-04-12T06:38:02.814Z,97518.00
2023-04-12T06:39:04.950Z,97507.22
2023-04-12T06:40:08.482Z,97512.09
2023-04-12T06:41:11.745Z,97514.28
2023-04-12T06:42:14.810Z,97504.81
2023-04-12T06:43:22.667Z,97504.53
2023-04-12T06:44:26.306Z,97498.63
2023-04-12T06:45:28.262Z,97502.44
2023-04-12T06:46:30.788Z,97498.16
2023-04-12T06:47:33.587Z,97495.78
2023-04-12T06:48:35.435Z,97488.81
2023-04-12T06:49:38.652Z,97484.69
2023-04-12T06:50:40.550Z,97483.91
2023-04-12T06:51:42.351Z,97480.41
2023-04-12T06:52:44.377Z,97475.34
2023-04-12T06:53:46.275Z,97477.56
2023-04-12T06:54:48.257Z,97479.13
2023-04-12T06:55:50.448Z,97474.06
2023-04-12T06:56:52.295Z,97474.47
2023-04-12T06:57:54.301Z,97475.97
2023-04-12T06:58:57.202Z,97477.56
2023-04-12T06:59:59.440Z,97473.47
2023-04-12T07:01:10.772Z,97479.00
2023-04-12T07:02:12.781Z,97475.84
2023-04-12T07:03:14.775Z,97469.66
2023-04-12T07:04:16.972Z,97473.47
2023-04-12T07:05:19.049Z,97475.03
2023-04-12T07:06:25.527Z,97472.34
2023-04-12T07:07:28.329Z,97466.66
2023-04-12T07:08:30.930Z,97472.03
2023-04-12T07:09:33.147Z,97468.06
2023-04-12T07:10:36.353Z,97465.06
2023-04-12T07:11:38.467Z,97460.50
2023-04-12T07:12:40.418Z,97461.28
2023-04-12T07:13:42.418Z,97457.81
2023-04-12T07:14:44.822Z,97448.13
2023-04-12T07:15:47.293Z,97456.22
2023-04-12T07:16:49.542Z,97441.66
2023-04-12T07:17:51.877Z,97438.47
2023-04-12T07:18:53.918Z,97441.66
2023-04-12T07:19:56.126Z,97440.88
2023-04-12T07:20:59.181Z,97432.63
2023-04-12T07:22:01.129Z,97432.78
2023-04-12T07:23:03.362Z,97430.09
2023-04-12T07:24:05.857Z,97433.59
2023-04-12T07:25:10.856Z,97430.59
2023-04-12T07:26:12.844Z,97431.38
2023-04-12T07:27:15.087Z,97424.41
2023-04-12T07:28:17.107Z,97416.34
2023-04-12T07:29:19.381Z,97422.81
2023-04-12T07:30:21.498Z,97430.91
2023-04-12T07:31:24.160Z,97434.38
2023-04-12T07:32:26.185Z,97429.78
2023-04-12T07:33:28.440Z,97427.09
2023-04-12T07:34:31.389Z,97424.41
2023-04-12T07:35:34.038Z,97414.75
2023-04-12T07:36:35.911Z,97422.81
2023-04-12T07:37:38.086Z,97410.16
2023-04-12T07:38:39.931Z,97412.06
2023-04-12T07:39:41.820Z,97409.38
2023-04-12T07:40:43.922Z,97398.91
2023-04-12T07:41:46.659Z,97402.09
2023-04-12T07:42:48.466Z,97408.28
2023-04-12T07:43:51.125Z,97404.00
2023-04-12T07:44:53.168Z,97401.31
2023-04-12T07:45:56.398Z,97393.53
2023-04-12T07:46:58.440Z,97397.50
2023-04-12T07:48:00.510Z,97395.94
2023-04-12T07:49:02.694Z,97395.94
2023-04-12T07:50:05.781Z,97392.94
2023-04-12T07:51:07.673Z,97394.81
2023-04-12T07:52:09.664Z,97392.63
2023-04-12T07:53:28.637Z,97385.56
2023-04-12T07:54:30.849Z,97385.66
2023-04-12T07:55:33.078Z,97379.78
2023-04-12T07:56:36.290Z,97383.75
2023-04-12T07:57:38.237Z,97382.66
2023-04-12T07:58:40.863Z,97377.56
2023-04-12T07:59:42.987Z,97379.16
2023-04-12T08:00:47.028Z,97373.00
2023-04-12T08:01:48.975Z,97361.44
2023-04-12T08:02:51.306Z,97366.81
2023-04-12T08:03:53.439Z,97365.72
2023-04-12T08:04:55.822Z,97364.44
2023-04-12T08:05:57.784Z,97356.06
2023-04-12T08:06:59.799Z,97346.88
2023-04-12T08:08:02.154Z,97356.06
2023-04-12T08:09:04.309Z,97354.47
2023-04-12T08:10:07.886Z,97350.19
2023-04-12T08:11:09.871Z,97350.97
2023-04-12T08:12:12.151Z,97348.28
2023-04-12T08:13:14.581Z,97340.72
2023-04-12T08:14:16.502Z,97339.91
2023-04-12T08:15:18.574Z,97337.22
2023-04-12T08:16:21.103Z,97344.19
2023-04-12T08:17:23.255Z,97339.91
2023-04-12T08:18:25.391Z,97336.44
2023-04-12T08:19:27.571Z,97343.41
2023-04-12T08:20:30.438Z,97333.44
2023-04-12T08:21:33.649Z,97326.97
2023-04-12T08:22:35.905Z,97328.03
2023-04-12T08:23:38.213Z,97328.34
2023-04-12T08:24:40.152Z,97321.09
2023-04-12T08:25:42.189Z,97319.19
2023-04-12T08:26:44.020Z,97322.19
2023-04-12T08:27:46.207Z,97315.22
2023-04-12T08:28:48.653Z,97318.38
2023-04-12T08:29:51.507Z,97318.38
2023-04-12T08:30:53.652Z,97329.16
2023-04-12T08:31:56.316Z,97319.50
2023-04-12T08:32:58.444Z,97328.66
2023-04-12T08:34:00.499Z,97329.78
2023-04-12T08:35:05.735Z,97335.63
2023-04-12T08:36:08.535Z,97334.53
2023-04-12T08:37:11.007Z,97332.47
2023-04-12T08:38:14.852Z,97331.38
2023-04-12T08:39:17.435Z,97343.22
2023-04-12T08:40:21.982Z,97339.91
2023-04-12T08:41:25.072Z,97340.22
2023-04-12T08:42:28.012Z,97337.84
2023-04-12T08:43:33.084Z,97337.53
2023-04-12T08:44:40.167Z,97343.41
2023-04-12T08:45:42.517Z,97341.00
2023-04-12T08:46:45.980Z,97339.75
2023-04-12T08:47:48.088Z,97339.44
2023-04-12T08:48:54.923Z,97328.03
2023-04-12T08:49:57.569Z,97333.75
2023-04-12T08:51:00.979Z,97331.38
2023-04-12T08:52:12.572Z,97328.84
2023-04-12T08:53:14.814Z,97323.28
2023-04-12T08:54:16.714Z,97318.69
2023-04-12T08:55:18.616Z,97309.84
2023-04-12T08:56:23.254Z,97310.63
2023-04-12T08:57:26.442Z,97299.88
2023-04-12T08:58:30.670Z,97306.84
2023-04-12T08:59:37.735Z,97302.25
2023-04-12T09:00:41.444Z,97315.22
2023-04-12T09:01:43.768Z,97299.88
2023-04-12T09:02:47.284Z,97308.72
2023-04-12T09:03:49.606Z,97299.56
2023-04-12T09:04:54.071Z,97296.06
2023-04-12T09:05:56.560Z,97293.38
2023-04-12T09:06:58.922Z,97291.81
2023-04-12T09:08:00.943Z,97285.31
2023-04-12T09:09:08.034Z,97283.72
2023-04-12T09:10:10.637Z,97286.41
2023-04-12T09:11:27.293Z,97276.38
2023-04-12T09:12:29.239Z,97275.03
2023-04-12T09:13:35.604Z,97269.66
2023-04-12T09:14:39.823Z,97273.75
2023-04-12T09:15:51.294Z,97274.16
2023-04-12T09:16:53.275Z,97273.16
2023-04-12T09:18:08.442Z,97281.13
2023-04-12T09:19:10.474Z,97280.16
2023-04-12T09:20:19.305Z,97273.38
2023-04-12T09:21:21.393Z,97272.56
2023-04-12T09:22:37.565Z,97269.25
2023-04-12T09:23:39.674Z,97267.19
2023-04-12T09:24:53.443Z,97271.16
2023-04-12T09:25:55.502Z,97267.97
2023-04-12T09:27:07.506Z,97268.47
2023-04-12T09:28:26.093Z,97265.94
2023-04-12T09:29:28.629Z,97264.81
2023-04-12T09:30:30.517Z,97261.81
2023-04-12T09:31:32.567Z,97259.13
2023-04-12T09:32:34.695Z,97259.44
2023-04-12T09:33:39.523Z,97256.75
2023-04-12T09:34:57.733Z,97258.97
2023-04-12T09:36:05.212Z,97250.91
2023-04-12T09:37:17.315Z,97258.19
2023-04-12T09:38:19.488Z,97251.84
2023-04-12T09:39:31.634Z,97255.81
2023-04-12T09:40:36.386Z,97254.06
2023-04-12T09:41:38.773Z,97258.00
2023-04-12T09:42:56.680Z,97261.66
2023-04-12T09:44:01.658Z,97259.28
2023-04-12T09:45:26.163Z,97269.91
2023-04-12T09:46:28.693Z,97263.41
2023-04-12T09:47:41.237Z,97268.16
2023-04-12T09:48:54.216Z,97260.06
2023-04-12T09:49:56.204Z,97262.59
2023-04-12T09:51:00.352Z,97259.59
2023-04-12T09:52:02.713Z,97254.06
2023-04-12T09:53:18.549Z,97253.59
2023-04-12T09:54:21.359Z,97256.13
2023-04-12T09:55:28.986Z,97256.59
2023-04-12T09:56:35.833Z,97252.63
2023-04-12T09:57:43.338Z,97243.94
2023-04-12T09:58:47.344Z,97245.34
2023-04-12T09:59:52.730Z,97245.66
2023-04-12T10:00:59.217Z,97249.94
2023-04-12T10:02:01.699Z,97245.34
2023-04-12T10:03:04.658Z,97242.66
2023-04-12T10:04:08.897Z,97240.75
2023-04-12T10:05:13.427Z,97238.38
2023-04-12T10:06:16.926Z,97241.88
2023-04-12T10:07:19.648Z,97248.84
2023-04-12T10:08:29.705Z,97248.03
2023-04-12T10:09:33.335Z,97252.00
2023-04-12T10:10:36.073Z,97249.16
2023-04-12T10:11:42.167Z,97246.16
2023-04-12T10:12:48.568Z,97241.25
2023-04-12T10:13:52.352Z,97242.84
2023-04-12T10:14:55.821Z,97234.28
2023-04-12T10:15:59.570Z,97233.50
2023-04-12T10:17:04.843Z,97241.25
2023-04-12T10:18:08.439Z,97238.25
2023-04-12T10:19:13.132Z,97231.75
2023-04-12T10:20:17.312Z,97233.66
2023-04-12T10:21:19.709Z,97220.19
2023-04-12T10:22:22.457Z,97226.69
2023-04-12T10:23:24.397Z,97223.19
2023-04-12T10:24:29.255Z,97229.84
2023-04-12T10:25:32.031Z,97218.63
2023-04-12T10:26:34.710Z,97230.47
2023-04-12T10:27:37.380Z,97224.78
2023-04-12T10:28:39.434Z,97221.00
2023-04-12T10:29:43.203Z,97217.19
2023-04-12T10:30:48.325Z,97208.00
2023-04-12T10:31:51.090Z,97217.69
2023-04-12T10:33:05.486Z,97206.31
2023-04-12T10:34:07.642Z,97216.91
2023-04-12T10:35:11.914Z,97219.28
2023-04-12T10:36:14.365Z,97220.69
2023-04-12T10:37:16.273Z,97220.69
2023-04-12T10:38:19.289Z,97206.16
2023-04-12T10:39:54.505Z,97205.03
2023-04-12T10:41:14.251Z,97203.47
2023-04-12T10:42:29.603Z,97210.25
2023-04-12T10:43:31.623Z,97195.06
2023-04-12T10:44:33.712Z,97195.38
2023-04-12T10:45:37.289Z,97187.78
2023-04-12T10:46:45.839Z,97195.22
2023-04-12T10:47:53.384Z,97190.47
2023-04-12T10:48:55.636Z,97188.56
2023-04-12T10:50:27.537Z,97191.31
2023-04-12T10:51:29.440Z,97191.75
2023-04-12T10:52:31.584Z,97187.00
2023-04-12T10:53:33.756Z,97188.38
2023-04-12T10:54:36.753Z,97185.69
2023-04-12T10:55:44.807Z,97182.09
2023-04-12T10:56:48.108Z,97183.19
2023-04-12T10:57:50.496Z,97178.91
2023-04-12T10:58:52.549Z,97180.50
2023-04-12T10:59:59.702Z,97177.50
2023-04-12T11:01:10.886Z,97184.16
2023-04-12T11:02:13.802Z,97184.47
2023-04-12T11:03:16.410Z,97174.03
2023-04-12T11:04:21.982Z,97173.69
2023-04-12T11:05:24.570Z,97174.81
2023-04-12T11:07:09.775Z,97175.31
2023-04-12T11:08:13.044Z,97174.97
2023-04-12T11:09:18.615Z,97171.97
2023-04-12T11:10:22.111Z,97176.41
2023-04-12T11:11:27.505Z,97171.00
2023-04-12T11:12:29.614Z,97175.59
2023-04-12T11:13:39.343Z,97169.91
2023-04-12T11:14:48.658Z,97163.41
2023-04-12T11:15:59.085Z,97160.72
2023-04-12T11:17:07.485Z,97169.59
2023-04-12T11:18:10.256Z,97166.75
2023-04-12T11:19:12.304Z,97165.63
2023-04-12T11:20:14.309Z,97164.84
2023-04-12T11:21:19.787Z,97157.88
2023-04-12T11:22:27.882Z,97155.66
2023-04-12T11:23:31.171Z,97159.47
2023-04-12T11:24:34.087Z,97158.66
2023-04-12T11:25:37.068Z,97155.97
2023-04-12T11:26:40.200Z,97150.59
2023-04-12T11:27:51.468Z,97156.59
2023-04-12T11:28:55.868Z,97147.91
2023-04-12T11:30:00.861Z,97147.09
2023-04-12T11:31:03.763Z,97155.66
2023-04-12T11:32:16.700Z,97158.03
2023-04-12T11:33:39.981Z,97152.53
2023-04-12T11:34:47.254Z,97152.00
2023-04-12T11:35:49.294Z,97153.75
2023-04-12T11:36:55.450Z,97153.75
2023-04-12T11:37:58.934Z,97152.50
2023-04-12T11:39:00.890Z,97146.00
2023-04-12T11:40:05.753Z,97133.34
2023-04-12T11:41:10.360Z,97138.72
2023-04-12T11:42:20.870Z,97130.31
2023-04-12T11:43:23.312Z,97129.53
2023-04-12T11:44:25.875Z,97134.13
2023-04-12T11:45:29.490Z,97131.44
2023-04-12T11:46:35.675Z,97131.59
2023-04-12T11:47:43.965Z,97133.50
2023-04-12T11:48:47.440Z,97141.56
2023-04-12T11:49:53.281Z,97139.66
2023-04-12T11:51:10.287Z,97129.53
2023-04-12T11:52:14.360Z,97129.69
2023-04-12T11:53:18.295Z,97129.22
2023-04-12T11:54:20.239Z,97140.78
2023-04-12T11:55:23.397Z,97128.09
2023-04-12T11:56:33.505Z,97131.31
2023-04-12T11:57:35.620Z,97119.25
2023-04-12T11:58:37.532Z,97131.59
2023-04-12T11:59:39.709Z,97134.28
2023-04-12T12:00:46.014Z,97127.78
2023-04-12T12:01:51.769Z,97129.88
2023-04-12T12:03:06.645Z,97124.31
2023-04-12T12:04:09.579Z,97112.16
2023-04-12T12:05:11.913Z,97115.94
2023-04-12T12:06:15.827Z,97120.03
2023-04-12T12:07:19.467Z,97112.16
2023-04-12T12:08:22.172Z,97118.13
2023-04-12T12:09:26.349Z,97105.47
2023-04-12T12:10:42.099Z,97110.56
2023-04-12T12:11:49.622Z,97104.06
2023-04-12T12:12:51.548Z,97108.66
2023-04-12T12:13:56.468Z,97112.16
2023-04-12T12:15:00.868Z,97110.25
2023-04-12T12:16:07.546Z,97109.94
2023-04-12T12:17:15.403Z,97110.72
2023-04-12T12:18:17.422Z,97108.34
2023-04-12T12:19:28.072Z,97107.72
2023-04-12T12:20:30.833Z,97104.06
2023-04-12T12:21:32.776Z,97101.38
2023-04-12T12:22:35.046Z,97102.78
2023-04-12T12:23:37.490Z,97102.50
2023-04-12T12:24:45.867Z,97103.13
2023-04-12T12:25:47.708Z,97108.03
2023-04-12T12:26:51.602Z,97110.72
2023-04-12T12:27:59.550Z,97101.53
2023-04-12T12:29:01.582Z,97100.75
2023-04-12T12:30:07.379Z,97102.66
2023-04-12T12:31:12.857Z,97096.16
2023-04-12T12:32:15.011Z,97102.97
2023-04-12T12:33:24.744Z,97101.22
2023-04-12T12:34:34.709Z,97096.63
2023-04-12T12:35:37.275Z,97100.75
2023-04-12T12:36:39.290Z,97105.03
2023-04-12T12:37:53.308Z,97102.47